Time;durP1;ratioP1;P1;durP2;ratioP2;P2;SDS_P1;SDS_P2;PMS_P1;PMS_P2;Temp;Humidity;BMP_temperature;BMP_pressure;BME280_temperature;BME280_humidity;BME280_pressure;Samples;Min_cycle;Max_cycle;Signal;HPM_P1;HPM_P2
2024/01/28 00:00:41;;;;;;;;;;;;;;;-144.99;100.00;52615.25;4987500;28;20104;-74
2024/01/28 00:03:07;;;;;;;;;;;;;;;-144.99;100.00;52598.94;4990091;28;20073;-77
2024/01/28 00:05:36;;;;;;;;;;;;;;;-144.99;100.00;52594.84;4988404;28;20008;-75
2024/01/28 00:08:03;;;;;;;;;;;;;;;-144.99;100.00;52611.16;4995550;28;19926;-77
2024/01/28 00:10:31;;;;;;;;;;;;;;;-144.99;100.00;52598.94;4990847;28;20020;-76
2024/01/28 00:12:58;;;;;;;;;;;;;;;-144.99;100.00;52639.69;4987217;28;19929;-74
2024/01/28 00:15:24;;;;;;;;;;;;;;;-144.99;100.00;52631.53;4986428;28;20033;-77
2024/01/28 00:17:51;;;;;;;;;;;;;;;-144.99;100.00;52607.09;4993721;28;20043;-77
2024/01/28 00:20:17;;;;;;;;;;;;;;;-144.99;100.00;52603.00;4981035;28;19925;-76
2024/01/28 00:22:44;;;;;;;;;;;;;;;-144.99;100.00;52647.84;4985918;28;20109;-76
2024/01/28 00:25:10;;;;;;;;;;;;;;;-144.99;100.00;52605.03;4987538;28;19929;-75
2024/01/28 00:27:38;;;;;;;;;;;;;;;-144.99;100.00;52611.16;4984880;28;20237;-77
2024/01/28 00:30:05;;;;;;;;;;;;;;;-144.99;100.00;52603.00;4985977;28;20055;-77
2024/01/28 00:32:31;;;;;;;;;;;;;;;-144.99;100.00;52607.09;4986560;28;19948;-75
2024/01/28 00:34:58;;;;;;;;;;;;;;;-144.99;100.00;52590.78;4985666;28;19930;-74
2024/01/28 00:37:24;;;;;;;;;;;;;;;-144.99;100.00;52605.03;4989569;28;20332;-75
2024/01/28 00:39:51;;;;;;;;;;;;;;;-144.99;100.00;52635.63;4986441;28;20404;-75
2024/01/28 00:42:17;;;;;;;;;;;;;;;-144.99;100.00;52607.09;4989450;28;19972;-75
2024/01/28 00:44:45;;;;;;;;;;;;;;;-144.99;100.00;52641.72;4985282;28;20019;-75
2024/01/28 00:47:11;;;;;;;;;;;;;;;-144.99;100.00;52611.16;4986123;28;19984;-77
2024/01/28 00:49:38;;;;;;;;;;;;;;;-144.99;100.00;52594.84;4985282;28;19976;-76
2024/01/28 00:52:04;;;;;;;;;;;;;;;-144.99;100.00;52603.00;4987904;28;19952;-76
2024/01/28 00:54:31;;;;;;;;;;;;;;;-144.99;100.00;52611.16;4984294;28;20014;-77
2024/01/28 00:56:58;;;;;;;;;;;;;;;-144.99;100.00;52623.38;4990907;28;20344;-77
2024/01/28 00:59:24;;;;;;;;;;;;;;;-144.99;100.00;52603.00;4990044;28;20459;-75
2024/01/28 01:01:52;;;;;;;;;;;;;;;-144.99;100.00;52647.84;4987344;28;20358;-75
2024/01/28 01:04:19;;;;;;;;;;;;;;;-144.99;100.00;52609.13;4989669;28;19938;-76
2024/01/28 01:06:45;;;;;;;;;;;;;;;-144.99;100.00;52580.59;4988050;28;20027;-75
2024/01/28 01:09:12;;;;;;;;;;;;;;;-144.99;100.00;52590.78;4988677;28;20462;-75
2024/01/28 01:11:39;;;;;;;;;;;;;;;-144.99;100.00;52574.47;4987613;28;19926;-76
2024/01/28 01:14:05;;;;;;;;;;;;;;;-144.99;100.00;52627.47;4988700;28;19969;-75
2024/01/28 01:16:31;;;;;;;;;;;;;;;-144.99;100.00;52590.78;4988359;28;19952;-76
2024/01/28 01:18:59;;;;;;;;;;;;;;;-144.99;100.00;52590.78;4983641;28;19930;-76
2024/01/28 01:21:26;;;;;;;;;;;;;;;-144.99;100.00;52623.38;4998113;28;19926;-76
2024/01/28 01:23:52;;;;;;;;;;;;;;;-144.99;100.00;52615.25;4983460;28;20111;-76
2024/01/28 01:26:18;;;;;;;;;;;;;;;-144.99;100.00;52590.78;4986211;28;20381;-76
2024/01/28 01:28:45;;;;;;;;;;;;;;;-144.99;100.00;52603.00;4987098;28;20025;-77
2024/01/28 01:31:11;;;;;;;;;;;;;;;-144.99;100.00;52588.75;4985732;28;19929;-76
2024/01/28 01:33:42;;;;;;;;;;;;;;;-144.99;100.00;52578.53;4783785;28;10000006;-78
2024/01/28 01:36:10;;;;;;;;;;;;;;;-144.99;100.00;52590.78;4978354;28;19930;-77
2024/01/28 01:38:37;;;;;;;;;;;;;;;-144.99;100.00;52603.00;4989516;28;19941;-77
2024/01/28 01:41:03;;;;;;;;;;;;;;;-144.99;100.00;52605.03;4988462;28;20310;-77
2024/01/28 01:43:30;;;;;;;;;;;;;;;-144.99;100.00;52617.28;4986470;28;20016;-77
2024/01/28 01:45:57;;;;;;;;;;;;;;;-144.99;100.00;52629.50;4989585;28;19925;-78
2024/01/28 01:48:23;;;;;;;;;;;;;;;-144.99;100.00;52656.00;4988356;28;20374;-76
2024/01/28 01:50:50;;;;;;;;;;;;;;;-144.99;100.00;52635.63;4994396;28;19926;-77
2024/01/28 01:53:18;;;;;;;;;;;;;;;-144.99;100.00;52586.69;4989888;28;20017;-75
2024/01/28 01:55:45;;;;;;;;;;;;;;;-144.99;100.00;52586.69;4991773;28;20012;-74
2024/01/28 01:58:11;;;;;;;;;;;;;;;-144.99;100.00;52582.63;4994903;28;19926;-75
2024/01/28 02:00:38;;;;;;;;;;;;;;;-144.99;100.00;52637.66;4994850;28;19925;-75
2024/01/28 02:03:05;;;;;;;;;;;;;;;-144.99;100.00;52607.09;4994577;28;20063;-76
2024/01/28 02:05:31;;;;;;;;;;;;;;;-144.99;100.00;52607.09;4991982;28;19965;-74
2024/01/28 02:07:58;;;;;;;;;;;;;;;-144.99;100.00;52623.38;4986343;28;20029;-75
2024/01/28 02:10:26;;;;;;;;;;;;;;;-144.99;100.00;52603.00;4987497;28;20056;-75
2024/01/28 02:12:52;;;;;;;;;;;;;;;-144.99;100.00;52615.25;4995751;28;20433;-75
2024/01/28 02:15:18;;;;;;;;;;;;;;;-144.99;100.00;52611.16;4990268;28;19978;-75
2024/01/28 02:17:45;;;;;;;;;;;;;;;-144.99;100.00;52615.25;4992257;28;19925;-73
2024/01/28 02:20:12;;;;;;;;;;;;;;;-144.99;100.00;52603.00;4995497;28;20092;-76
2024/01/28 02:22:38;;;;;;;;;;;;;;;-144.99;100.00;52611.16;4993297;28;19941;-75
2024/01/28 02:25:07;;;;;;;;;;;;;;;-144.99;100.00;52603.00;4991400;28;20429;-76
2024/01/28 02:27:35;;;;;;;;;;;;;;;-144.99;100.00;52623.38;4987640;28;20004;-72
2024/01/28 02:30:01;;;;;;;;;;;;;;;-144.99;100.00;52570.38;4990724;28;20421;-75
2024/01/28 02:32:29;;;;;;;;;;;;;;;-144.99;100.00;52656.00;4994939;28;20417;-75
2024/01/28 02:34:57;;;;;;;;;;;;;;;-144.99;100.00;52619.31;4991301;28;20008;-76
2024/01/28 02:37:24;;;;;;;;;;;;;;;-144.99;100.00;52625.44;4986990;28;19981;-74
2024/01/28 02:39:50;;;;;;;;;;;;;;;-144.99;100.00;52590.78;4991453;28;20017;-73
2024/01/28 02:42:18;;;;;;;;;;;;;;;-144.99;100.00;52576.50;4999775;28;20016;-74
2024/01/28 02:44:44;;;;;;;;;;;;;;;-144.99;100.00;52570.38;4994691;28;20028;-73
2024/01/28 02:47:10;;;;;;;;;;;;;;;-144.99;100.00;52613.19;4987352;28;20287;-72
2024/01/28 02:49:37;;;;;;;;;;;;;;;-144.99;100.00;52590.78;4987825;28;19946;-76
2024/01/28 02:52:03;;;;;;;;;;;;;;;-144.99;100.00;52627.47;4998649;28;20013;-75
2024/01/28 02:54:30;;;;;;;;;;;;;;;-144.99;100.00;52598.94;4989701;28;20016;-74
2024/01/28 02:56:56;;;;;;;;;;;;;;;-144.99;100.00;52572.44;4988631;28;20029;-75
2024/01/28 02:59:24;;;;;;;;;;;;;;;-144.99;100.00;52607.09;4992783;28;20244;-75
2024/01/28 03:01:51;;;;;;;;;;;;;;;-144.99;100.00;52558.16;4991434;28;20016;-75
2024/01/28 03:04:17;;;;;;;;;;;;;;;-144.99;100.00;52603.00;4995671;28;19957;-76
2024/01/28 03:06:44;;;;;;;;;;;;;;;-144.99;100.00;52607.09;4993948;28;20023;-73
2024/01/28 03:09:10;;;;;;;;;;;;;;;-144.99;100.00;52558.16;4987042;28;20020;-73
2024/01/28 03:11:37;;;;;;;;;;;;;;;-144.99;100.00;52590.78;4996584;28;19937;-73
2024/01/28 03:14:03;;;;;;;;;;;;;;;-144.99;100.00;52594.84;4990055;28;19925;-72
2024/01/28 03:16:32;;;;;;;;;;;;;;;-144.99;100.00;52615.25;4992674;28;20018;-73
2024/01/28 03:18:58;;;;;;;;;;;;;;;-144.99;100.00;52598.94;4983213;28;20481;-73
2024/01/28 03:21:25;;;;;;;;;;;;;;;-144.99;100.00;52533.69;4998354;28;19973;-73
2024/01/28 03:23:51;;;;;;;;;;;;;;;-144.99;100.00;52619.31;4994391;28;20283;-73
2024/01/28 03:26:19;;;;;;;;;;;;;;;-144.99;100.00;52570.38;4992033;28;19985;-74
2024/01/28 03:28:45;;;;;;;;;;;;;;;-144.99;100.00;52572.44;4990376;28;19930;-73
2024/01/28 03:31:12;;;;;;;;;;;;;;;-144.99;100.00;52596.88;4987664;28;20028;-74
2024/01/28 03:33:39;;;;;;;;;;;;;;;-144.99;100.00;52600.97;4998004;28;20390;-74
2024/01/28 03:36:06;;;;;;;;;;;;;;;-144.99;100.00;52611.16;4991778;28;20009;-74
2024/01/28 03:38:33;;;;;;;;;;;;;;;-144.99;100.00;52578.53;4997369;28;20013;-71
2024/01/28 03:40:59;;;;;;;;;;;;;;;-144.99;100.00;52598.94;4989388;28;19930;-74
2024/01/28 03:43:25;;;;;;;;;;;;;;;-144.99;100.00;52600.97;4993023;28;19930;-75
2024/01/28 03:45:52;;;;;;;;;;;;;;;-144.99;100.00;52562.25;4997679;28;19992;-74
2024/01/28 03:48:18;;;;;;;;;;;;;;;-144.99;100.00;52564.28;4994502;28;19962;-74
2024/01/28 03:50:47;;;;;;;;;;;;;;;-144.99;100.00;52590.78;4994925;28;19932;-71
2024/01/28 03:53:13;;;;;;;;;;;;;;;-144.99;100.00;52635.63;4985026;28;20115;-73
2024/01/28 03:55:40;;;;;;;;;;;;;;;-144.99;100.00;52594.84;4991132;28;20020;-73
2024/01/28 03:58:06;;;;;;;;;;;;;;;-144.99;100.00;52639.69;4991010;28;19965;-73
2024/01/28 04:00:33;;;;;;;;;;;;;;;-144.99;100.00;52615.25;4996642;28;19926;-72
2024/01/28 04:03:01;;;;;;;;;;;;;;;-144.99;100.00;52582.63;4986931;28;19929;-75
2024/01/28 04:05:27;;;;;;;;;;;;;;;-144.99;100.00;52570.38;4989363;28;19937;-72
2024/01/28 04:07:55;;;;;;;;;;;;;;;-144.99;100.00;52619.31;4989731;28;19969;-74
2024/01/28 04:10:21;;;;;;;;;;;;;;;-144.99;100.00;52603.00;4991954;28;19932;-75
2024/01/28 04:12:48;;;;;;;;;;;;;;;-144.99;100.00;52643.78;4987797;28;20013;-73
2024/01/28 04:15:14;;;;;;;;;;;;;;;-144.99;100.00;52623.38;4990271;28;19995;-74
2024/01/28 04:17:41;;;;;;;;;;;;;;;-144.99;100.00;52615.25;4989123;28;19926;-73
2024/01/28 04:20:08;;;;;;;;;;;;;;;-144.99;100.00;52603.00;4992871;28;20405;-73
2024/01/28 04:22:34;;;;;;;;;;;;;;;-144.99;100.00;52623.38;4988919;28;19968;-74
2024/01/28 04:25:02;;;;;;;;;;;;;;;-144.99;100.00;52590.78;4992309;28;19961;-73
2024/01/28 04:27:29;;;;;;;;;;;;;;;-144.99;100.00;52570.38;4981418;28;20016;-74
2024/01/28 04:29:55;;;;;;;;;;;;;;;-144.99;100.00;52603.00;4987425;28;20377;-73
2024/01/28 04:32:22;;;;;;;;;;;;;;;-144.99;100.00;52615.25;4985070;28;20313;-72
2024/01/28 04:34:48;;;;;;;;;;;;;;;-144.99;100.00;52586.69;4996590;28;20491;-73
2024/01/28 04:37:14;;;;;;;;;;;;;;;-144.99;100.00;52586.69;4994860;28;19968;-74
2024/01/28 04:39:41;;;;;;;;;;;;;;;-144.99;100.00;52590.78;4990835;28;19926;-73
2024/01/28 04:42:09;;;;;;;;;;;;;;;-144.99;100.00;52578.53;4990066;28;20057;-73
2024/01/28 04:44:35;;;;;;;;;;;;;;;-144.99;100.00;52607.09;4984889;28;20414;-72
2024/01/28 04:47:02;;;;;;;;;;;;;;;-144.99;100.00;52574.47;4988350;28;19926;-73
2024/01/28 04:49:29;;;;;;;;;;;;;;;-144.99;100.00;52611.16;4991548;28;19964;-74
2024/01/28 04:51:55;;;;;;;;;;;;;;;-144.99;100.00;52615.25;4994307;28;20662;-74
2024/01/28 04:54:22;;;;;;;;;;;;;;;-144.99;100.00;52598.94;4983738;28;20449;-74
2024/01/28 04:56:49;;;;;;;;;;;;;;;-144.99;100.00;52590.78;4987729;28;20033;-75
2024/01/28 04:59:17;;;;;;;;;;;;;;;-144.99;100.00;52625.44;4988828;28;20008;-74
2024/01/28 05:01:43;;;;;;;;;;;;;;;-144.99;100.00;52613.19;4988805;28;19957;-75
2024/01/28 05:04:09;;;;;;;;;;;;;;;-144.99;100.00;52590.78;4989200;28;19961;-74
2024/01/28 05:06:36;;;;;;;;;;;;;;;-144.99;100.00;52639.69;4992216;28;19949;-75
2024/01/28 05:09:03;;;;;;;;;;;;;;;-144.99;100.00;52570.38;4988851;28;19926;-75
2024/01/28 05:11:30;;;;;;;;;;;;;;;-144.99;100.00;52629.50;4987048;28;19930;-74
2024/01/28 05:13:56;;;;;;;;;;;;;;;-144.99;100.00;52590.78;4985893;28;20028;-74
2024/01/28 05:16:24;;;;;;;;;;;;;;;-144.99;100.00;52598.94;4986516;28;20024;-77
2024/01/28 05:18:51;;;;;;;;;;;;;;;-144.99;100.00;52603.00;4988571;28;20012;-74
2024/01/28 05:21:18;;;;;;;;;;;;;;;-144.99;100.00;52611.16;4991650;28;20349;-75
2024/01/28 05:23:47;;;;;;;;;;;;;;;-144.99;100.00;52637.66;4989937;28;20020;-74
2024/01/28 05:26:13;;;;;;;;;;;;;;;-144.99;100.00;52615.25;4983030;28;19951;-75
2024/01/28 05:28:40;;;;;;;;;;;;;;;-144.99;100.00;52586.69;4990638;28;20012;-74
2024/01/28 05:31:07;;;;;;;;;;;;;;;-144.99;100.00;52603.00;4993236;28;20032;-75
2024/01/28 05:33:37;;;;;;;;;;;;;;;-144.99;100.00;52619.31;4996517;28;20016;-72
2024/01/28 05:36:10;;;;;;;;;;;;;;;-144.99;100.00;52623.38;4982440;28;19964;-76
2024/01/28 05:38:37;;;;;;;;;;;;;;;-144.99;100.00;52617.28;4990622;28;20017;-75
2024/01/28 05:41:03;;;;;;;;;;;;;;;-144.99;100.00;52598.94;4996412;28;20021;-78
2024/01/28 05:43:30;;;;;;;;;;;;;;;-144.99;100.00;52574.47;4994212;28;20044;-75
2024/01/28 05:45:56;;;;;;;;;;;;;;;-144.99;100.00;52619.31;4996434;28;20480;-74
2024/01/28 05:48:22;;;;;;;;;;;;;;;-144.99;100.00;52623.38;4990966;28;19930;-75
2024/01/28 05:50:50;;;;;;;;;;;;;;;-144.99;100.00;52586.69;4998295;28;20463;-75
2024/01/28 05:53:17;;;;;;;;;;;;;;;-144.99;100.00;52592.81;4992555;28;20008;-75
2024/01/28 05:55:43;;;;;;;;;;;;;;;-144.99;100.00;52566.31;4990542;28;20409;-75
2024/01/28 05:58:10;;;;;;;;;;;;;;;-144.99;100.00;52562.25;4987664;28;20032;-75
2024/01/28 06:00:36;;;;;;;;;;;;;;;-144.99;100.00;52594.84;4990777;28;19973;-75
2024/01/28 06:03:03;;;;;;;;;;;;;;;-144.99;100.00;52578.53;4992729;28;19933;-76
2024/01/28 06:05:30;;;;;;;;;;;;;;;-144.99;100.00;52623.38;4991478;28;20017;-75
2024/01/28 06:07:58;;;;;;;;;;;;;;;-144.99;100.00;52603.00;4994708;28;19988;-75
2024/01/28 06:10:24;;;;;;;;;;;;;;;-144.99;100.00;52629.50;4992237;28;20024;-76
2024/01/28 06:12:50;;;;;;;;;;;;;;;-144.99;100.00;52584.66;4991003;28;20024;-76
2024/01/28 06:15:17;;;;;;;;;;;;;;;-144.99;100.00;52613.19;4994961;28;19969;-76
2024/01/28 06:17:43;;;;;;;;;;;;;;;-144.99;100.00;52584.66;4998490;28;20348;-76
2024/01/28 06:20:10;;;;;;;;;;;;;;;-144.99;100.00;52578.53;4993303;28;20397;-77
2024/01/28 06:22:36;;;;;;;;;;;;;;;-144.99;100.00;52605.03;4996486;28;20469;-74
2024/01/28 06:25:04;;;;;;;;;;;;;;;-144.99;100.00;52635.63;4996676;28;20053;-73
2024/01/28 06:27:31;;;;;;;;;;;;;;;-144.99;100.00;52615.25;4995580;28;20499;-73
2024/01/28 06:29:57;;;;;;;;;;;;;;;-144.99;100.00;52594.84;4990720;28;19926;-75
2024/01/28 06:32:24;;;;;;;;;;;;;;;-144.99;100.00;52590.78;4995540;28;20457;-74
2024/01/28 06:34:50;;;;;;;;;;;;;;;-144.99;100.00;52588.75;4994526;28;19925;-73
2024/01/28 06:37:17;;;;;;;;;;;;;;;-144.99;100.00;52619.31;4988541;28;19975;-76
2024/01/28 06:39:43;;;;;;;;;;;;;;;-144.99;100.00;52615.25;4991496;28;20052;-75
2024/01/28 06:42:11;;;;;;;;;;;;;;;-144.99;100.00;52598.94;4991257;28;19981;-75
2024/01/28 06:44:37;;;;;;;;;;;;;;;-144.99;100.00;52619.31;4994197;28;20024;-75
2024/01/28 06:47:06;;;;;;;;;;;;;;;-144.99;100.00;52598.94;4990863;28;20346;-74
2024/01/28 06:49:32;;;;;;;;;;;;;;;-144.99;100.00;52590.78;4986810;28;19936;-79
2024/01/28 06:51:59;;;;;;;;;;;;;;;-144.99;100.00;52607.09;4993848;28;20025;-75
2024/01/28 06:54:25;;;;;;;;;;;;;;;-144.99;100.00;52613.19;4989922;28;20523;-76
2024/01/28 06:56:51;;;;;;;;;;;;;;;-144.99;100.00;52623.38;4997334;28;19972;-76
2024/01/28 06:59:19;;;;;;;;;;;;;;;-144.99;100.00;52600.97;4996257;28;19926;-76
2024/01/28 07:01:46;;;;;;;;;;;;;;;-144.99;100.00;52615.25;4990110;28;20049;-77
2024/01/28 07:04:12;;;;;;;;;;;;;;;-144.99;100.00;52598.94;4989751;28;20139;-77
2024/01/28 07:06:39;;;;;;;;;;;;;;;-144.99;100.00;52611.16;4986563;28;19941;-76
2024/01/28 07:09:07;;;;;;;;;;;;;;;-144.99;100.00;52586.69;4996880;28;20131;-76
2024/01/28 07:11:34;;;;;;;;;;;;;;;-144.99;100.00;52637.66;4990700;28;19936;-73
2024/01/28 07:14:00;;;;;;;;;;;;;;;-144.99;100.00;52603.00;4991295;28;19930;-77
2024/01/28 07:16:28;;;;;;;;;;;;;;;-144.99;100.00;52623.38;4991201;28;19926;-75
2024/01/28 07:18:54;;;;;;;;;;;;;;;-144.99;100.00;52562.25;4990374;28;20394;-76
2024/01/28 07:21:22;;;;;;;;;;;;;;;-144.99;100.00;52607.09;4989738;28;20008;-72
2024/01/28 07:23:48;;;;;;;;;;;;;;;-144.99;100.00;52594.84;4991654;28;19926;-73
2024/01/28 07:26:15;;;;;;;;;;;;;;;-144.99;100.00;52562.25;4986486;28;20012;-76
2024/01/28 07:28:42;;;;;;;;;;;;;;;-144.99;100.00;52576.50;4984654;28;20027;-74
2024/01/28 07:31:09;;;;;;;;;;;;;;;-144.99;100.00;52621.34;4991072;28;19980;-74
2024/01/28 07:33:37;;;;;;;;;;;;;;;-144.99;100.00;52619.31;4993652;28;19972;-75
2024/01/28 07:36:03;;;;;;;;;;;;;;;-144.99;100.00;52627.47;4992312;28;20139;-74
2024/01/28 07:38:30;;;;;;;;;;;;;;;-144.99;100.00;52586.69;4985404;28;19929;-74
2024/01/28 07:40:56;;;;;;;;;;;;;;;-144.99;100.00;52578.53;4990610;28;20032;-76
2024/01/28 07:43:23;;;;;;;;;;;;;;;-144.99;100.00;52550.00;4992224;28;20365;-76
2024/01/28 07:45:50;;;;;;;;;;;;;;;-144.99;100.00;52590.78;4992127;28;19952;-75
2024/01/28 07:48:16;;;;;;;;;;;;;;;-144.99;100.00;52603.00;4990966;28;19965;-76
2024/01/28 07:50:44;;;;;;;;;;;;;;;-144.99;100.00;52578.53;4996297;28;19925;-75
2024/01/28 07:53:12;;;;;;;;;;;;;;;-144.99;100.00;52570.38;4986983;28;20016;-75
2024/01/28 07:55:39;;;;;;;;;;;;;;;-144.99;100.00;52562.25;4990765;28;20076;-74
2024/01/28 07:58:05;;;;;;;;;;;;;;;-144.99;100.00;52572.44;4991262;28;20004;-74
2024/01/28 08:00:32;;;;;;;;;;;;;;;-144.99;100.00;52582.63;4996617;28;19940;-76
2024/01/28 08:02:58;;;;;;;;;;;;;;;-144.99;100.00;52586.69;4984237;28;19926;-77
2024/01/28 08:05:26;;;;;;;;;;;;;;;-144.99;100.00;52550.00;4993492;28;19926;-77
2024/01/28 08:07:54;;;;;;;;;;;;;;;-144.99;100.00;52603.00;4996848;28;19952;-76
2024/01/28 08:10:20;;;;;;;;;;;;;;;-144.99;100.00;52566.31;4996870;28;20490;-76
2024/01/28 08:12:47;;;;;;;;;;;;;;;-144.99;100.00;52586.69;4992693;28;19968;-75
2024/01/28 08:15:13;;;;;;;;;;;;;;;-144.99;100.00;52590.78;4999075;28;20032;-76
2024/01/28 08:17:39;;;;;;;;;;;;;;;-144.99;100.00;52596.88;4999620;28;20088;-77
2024/01/28 08:20:07;;;;;;;;;;;;;;;-144.99;99.81;52598.94;4994981;28;19969;-77
2024/01/28 08:22:34;;;;;;;;;;;;;;;-144.99;99.31;52598.94;4988116;28;19926;-73
2024/01/28 08:25:02;;;;;;;;;;;;;;;-144.99;99.69;52586.69;4997750;28;20032;-76
2024/01/28 08:27:30;;;;;;;;;;;;;;;-144.99;99.94;52586.69;4994786;28;19930;-76
2024/01/28 08:29:56;;;;;;;;;;;;;;;-144.99;99.67;52578.53;4998417;28;20350;-76
2024/01/28 08:32:23;;;;;;;;;;;;;;;-144.99;100.00;52607.09;4991020;28;19978;-74
2024/01/28 08:34:51;;;;;;;;;;;;;;;-144.99;100.00;52558.16;4990410;28;19985;-75
2024/01/28 08:37:17;;;;;;;;;;;;;;;-144.99;100.00;52574.47;4997060;28;19985;-75
2024/01/28 08:39:44;;;;;;;;;;;;;;;-144.99;100.00;52586.69;4994777;28;20464;-75
2024/01/28 08:42:12;;;;;;;;;;;;;;;-144.99;100.00;52552.03;4994824;28;20021;-76
2024/01/28 08:44:40;;;;;;;;;;;;;;;-144.99;99.87;52554.09;4988155;28;19953;-74
2024/01/28 08:47:07;;;;;;;;;;;;;;;-144.99;98.77;52550.00;4991082;28;20325;-75
2024/01/28 08:49:33;;;;;;;;;;;;;;;-144.99;98.60;52619.31;4996468;28;19933;-75
2024/01/28 08:52:00;;;;;;;;;;;;;;;-144.99;97.12;52554.09;4994578;28;19926;-77
2024/01/28 08:54:26;;;;;;;;;;;;;;;-144.99;98.18;52578.53;4993303;28;20386;-76
2024/01/28 08:56:53;;;;;;;;;;;;;;;-144.99;96.50;52550.00;4992591;28;20005;-77
2024/01/28 08:59:21;;;;;;;;;;;;;;;-144.99;97.03;52566.31;4991949;28;19930;-77
2024/01/28 09:01:49;;;;;;;;;;;;;;;-144.99;93.92;52572.44;4993635;28;19984;-77
2024/01/28 09:04:16;;;;;;;;;;;;;;;-144.99;95.48;52539.81;4988977;28;20378;-77
2024/01/28 09:06:42;;;;;;;;;;;;;;;-144.99;91.55;52568.34;4985803;28;20035;-76
2024/01/28 09:09:09;;;;;;;;;;;;;;;-144.99;89.23;52562.25;4990892;28;20009;-76
2024/01/28 09:11:36;;;;;;;;;;;;;;;-144.99;88.30;52529.63;4994064;28;20020;-75
2024/01/28 09:14:02;;;;;;;;;;;;;;;-144.99;86.33;52547.97;4988740;28;19933;-73
2024/01/28 09:16:30;;;;;;;;;;;;;;;-144.99;85.95;52529.63;4992588;28;20020;-75
2024/01/28 09:18:57;;;;;;;;;;;;;;;-144.99;85.88;52529.63;4990919;28;20321;-76
2024/01/28 09:21:23;;;;;;;;;;;;;;;-144.99;85.88;52554.09;4995512;28;19926;-76
2024/01/28 09:23:50;;;;;;;;;;;;;;;-144.99;85.42;52568.34;4987698;28;20016;-76
2024/01/28 09:26:16;;;;;;;;;;;;;;;-144.99;83.94;52541.84;4993807;28;20482;-74
2024/01/28 09:28:42;;;;;;;;;;;;;;;-144.99;82.95;52517.41;4990533;28;20001;-74
2024/01/28 09:31:09;;;;;;;;;;;;;;;-144.99;80.85;52521.47;4990978;28;20020;-76
2024/01/28 09:33:37;;;;;;;;;;;;;;;-144.99;80.81;52541.84;4988694;28;20037;-75
2024/01/28 09:36:03;;;;;;;;;;;;;;;-144.99;80.43;52550.00;4987266;28;20075;-75
2024/01/28 09:38:30;;;;;;;;;;;;;;;-144.99;79.49;52517.41;4987635;28;20004;-73
2024/01/28 09:40:59;;;;;;;;;;;;;;;-144.99;78.93;52554.09;4992211;28;19926;-74
2024/01/28 09:43:29;;;;;;;;;;;;;;;-144.99;78.43;52527.59;4988779;28;20020;-74
2024/01/28 09:45:55;;;;;;;;;;;;;;;-144.99;78.46;52501.09;4988072;28;20016;-77
2024/01/28 09:48:22;;;;;;;;;;;;;;;-144.99;76.63;52525.56;4984195;28;19937;-74
2024/01/28 09:50:50;;;;;;;;;;;;;;;-144.99;75.79;52509.25;4994448;28;20021;-74
2024/01/28 09:53:16;;;;;;;;;;;;;;;-144.99;76.04;52558.16;4988911;28;19989;-74
2024/01/28 09:55:43;;;;;;;;;;;;;;;-144.99;75.46;52533.69;4993567;28;19952;-75
2024/01/28 09:58:10;;;;;;;;;;;;;;;-144.99;75.21;52509.25;4985445;28;19984;-74
2024/01/28 10:00:37;;;;;;;;;;;;;;;-144.99;73.96;52513.31;4985108;28;20473;-74
2024/01/28 10:03:03;;;;;;;;;;;;;;;-144.99;73.39;52521.47;4989810;28;19936;-74
2024/01/28 10:05:30;;;;;;;;;;;;;;;-144.99;72.82;52478.66;4988110;28;20362;-74
2024/01/28 10:08:02;;;;;;;;;;;;;;;-144.99;71.46;52515.34;4989332;28;20073;-74
2024/01/28 10:10:28;;;;;;;;;;;;;;;-144.99;72.14;52509.25;4984308;28;20263;-74
2024/01/28 10:12:55;;;;;;;;;;;;;;;-144.99;71.11;52435.88;4993644;28;20024;-75
2024/01/28 10:15:23;;;;;;;;;;;;;;;-144.99;70.03;52513.31;4993326;28;19984;-75
2024/01/28 10:17:50;;;;;;;;;;;;;;;-144.99;69.48;52488.84;4990488;28;19926;-75
2024/01/28 10:20:16;;;;;;;;;;;;;;;-144.99;68.73;52488.84;4986900;28;19997;-75
2024/01/28 10:22:43;;;;;;;;;;;;;;;-144.99;68.88;52468.47;4992653;28;19964;-75
2024/01/28 10:25:12;;;;;;;;;;;;;;;-144.99;68.18;52417.53;4991121;28;19937;-77
2024/01/28 10:27:38;;;;;;;;;;;;;;;-144.99;67.46;52439.94;4982244;28;19957;-77
2024/01/28 10:30:06;;;;;;;;;;;;;;;-144.99;67.82;52464.41;4990166;28;20369;-77
2024/01/28 10:32:33;;;;;;;;;;;;;;;-144.99;67.11;52462.34;4989072;28;19936;-78
2024/01/28 10:34:59;;;;;;;;;;;;;;;-144.99;65.28;52386.94;4985266;28;19926;-77
2024/01/28 10:37:28;;;;;;;;;;;;;;;-144.99;65.06;52421.59;4988536;28;20045;-77
2024/01/28 10:39:57;;;;;;;;;;;;;;;-144.99;64.38;52429.75;4987870;28;20020;-77
2024/01/28 10:42:26;;;;;;;;;;;;;;;-144.99;64.44;52401.22;4982338;28;20193;-77
2024/01/28 10:44:54;;;;;;;;;;;;;;;-144.99;63.57;52395.09;4987705;28;20008;-77
2024/01/28 10:47:25;;;;;;;;;;;;;;;-144.99;63.48;52362.50;4990866;28;20029;-77
2024/01/28 10:49:57;;;;;;;;;;;;;;;-144.99;62.93;52391.03;4990000;28;19934;-77
2024/01/28 10:52:24;;;;;;;;;;;;;;;-144.99;64.05;52403.25;4986993;28;20029;-78
2024/01/28 10:54:51;;;;;;;;;;;;;;;-144.99;63.61;52360.44;4989261;28;20004;-78
2024/01/28 10:57:19;;;;;;;;;;;;;;;-144.99;62.36;52395.09;4990291;28;19933;-77
2024/01/28 10:59:47;;;;;;;;;;;;;;;-144.99;62.38;52331.91;4988587;28;20036;-77
2024/01/28 11:02:14;;;;;;;;;;;;;;;-144.99;62.97;52403.25;4989740;28;20000;-78
2024/01/28 11:04:42;;;;;;;;;;;;;;;-144.99;63.03;52350.25;4989508;28;20021;-76
2024/01/28 11:07:08;;;;;;;;;;;;;;;-144.99;62.45;52338.03;4988001;28;19938;-77
2024/01/28 11:09:36;;;;;;;;;;;;;;;-144.99;61.41;52276.88;4985425;28;19926;-74
2024/01/28 11:12:02;;;;;;;;;;;;;;;-144.99;60.51;52291.16;4989289;28;19939;-78
2024/01/28 11:14:28;;;;;;;;;;;;;;;-144.99;60.48;52333.94;4988624;28;19996;-77
2024/01/28 11:16:56;;;;;;;;;;;;;;;-144.99;61.29;52342.09;4989904;28;20414;-78
2024/01/28 11:19:27;;;;;;;;;;;;;;;-144.99;61.15;52313.56;4988465;28;20025;-78
2024/01/28 11:21:54;;;;;;;;;;;;;;;-144.99;61.49;52370.63;4991811;28;20039;-78
2024/01/28 11:24:21;;;;;;;;;;;;;;;-144.99;62.02;52372.69;4992419;28;19975;-78
2024/01/28 11:26:48;;;;;;;;;;;;;;;-144.99;61.68;52366.56;4991213;28;20028;-78
2024/01/28 11:29:16;;;;;;;;;;;;;;;-144.99;61.32;52338.03;4987331;28;19934;-79
2024/01/28 11:31:43;;;;;;;;;;;;;;;-144.99;60.89;52358.41;4985407;28;19988;-78
2024/01/28 11:34:17;;;;;;;;;;;;;;;-144.99;60.92;52346.19;4988917;28;19938;-78
2024/01/28 11:36:45;;;;;;;;;;;;;;;-144.99;61.34;52346.19;4997085;28;19929;-78
2024/01/28 11:39:12;;;;;;;;;;;;;;;-144.99;61.28;52313.56;4990237;28;19926;-78
2024/01/28 11:41:39;;;;;;;;;;;;;;;-144.99;60.62;52299.31;4989426;28;19929;-79
2024/01/28 11:44:07;;;;;;;;;;;;;;;-144.99;60.25;52333.94;4989784;28;20025;-78
2024/01/28 11:46:34;;;;;;;;;;;;;;;-144.99;59.46;52309.50;4989446;28;20420;-78
2024/01/28 11:49:01;;;;;;;;;;;;;;;-144.99;59.92;52329.88;4988931;28;19987;-78
2024/01/28 11:51:31;;;;;;;;;;;;;;;-144.99;60.01;52372.69;4992471;28;19926;-78
2024/01/28 11:53:58;;;;;;;;;;;;;;;-144.99;60.63;52395.09;4994001;28;19972;-78
2024/01/28 11:56:24;;;;;;;;;;;;;;;-144.99;60.91;52354.34;4985476;28;19934;-77
2024/01/28 11:58:51;;;;;;;;;;;;;;;-144.99;60.33;52370.63;4987982;28;19926;-78
2024/01/28 12:01:17;;;;;;;;;;;;;;;-144.99;59.92;52329.88;4987055;28;19929;-78
2024/01/28 12:03:44;;;;;;;;;;;;;;;-144.99;59.24;52342.09;4986672;28;19961;-77
2024/01/28 12:06:10;;;;;;;;;;;;;;;-144.99;59.02;52321.72;4988726;28;20020;-76
2024/01/28 12:08:43;;;;;;;;;;;;;;;-144.99;58.76;52346.19;4988556;28;19973;-78
2024/01/28 12:11:11;;;;;;;;;;;;;;;-144.99;58.73;52317.66;4987572;28;19930;-77
2024/01/28 12:13:37;;;;;;;;;;;;;;;-144.99;58.43;52280.97;4988664;28;20044;-77
2024/01/28 12:16:05;;;;;;;;;;;;;;;-144.99;58.36;52325.81;4984893;28;19993;-77
2024/01/28 12:18:32;;;;;;;;;;;;;;;-144.99;58.79;52362.50;4984556;28;19988;-77